createdAt,value
2017-08-09T00:00:59.184Z,1.92
2017-08-09T00:03:26.913Z,2.40
2017-08-09T00:05:54.452Z,2.47
2017-08-09T00:08:22.142Z,2.20
2017-08-09T00:10:53.324Z,2.20
2017-08-09T00:13:21.044Z,2.25
2017-08-09T00:15:49.452Z,2.17
2017-08-09T00:18:17.006Z,2.15
2017-08-09T00:20:44.656Z,2.08
2017-08-09T00:23:12.462Z,2.20
2017-08-09T00:25:40.229Z,1.90
2017-08-09T00:28:07.959Z,1.75
2017-08-09T00:30:35.733Z,1.87
2017-08-09T00:33:03.566Z,2.58
2017-08-09T00:35:31.255Z,1.95
2017-08-09T00:37:59.360Z,2.15
2017-08-09T00:40:27.117Z,2.22
2017-08-09T00:42:54.827Z,2.10
2017-08-09T00:45:22.341Z,2.10
2017-08-09T00:47:50.283Z,1.85
2017-08-09T00:50:17.812Z,1.85
2017-08-09T00:52:45.497Z,1.87
2017-08-09T00:55:13.036Z,1.90
2017-08-09T00:57:40.545Z,1.98
2017-08-09T01:00:08.315Z,2.23
2017-08-09T01:02:35.820Z,2.15
2017-08-09T01:05:03.512Z,2.15
2017-08-09T01:07:31.280Z,1.75
2017-08-09T01:09:59.022Z,2.17
2017-08-09T01:12:29.475Z,1.80
2017-08-09T01:14:56.992Z,1.80
2017-08-09T01:17:24.577Z,2.15
2017-08-09T01:19:52.869Z,2.15
2017-08-09T01:22:20.598Z,2.03
2017-08-09T01:24:48.410Z,2.30
2017-08-09T01:27:16.196Z,2.12
2017-08-09T01:29:43.938Z,2.22
2017-08-09T01:32:16.011Z,2.15
2017-08-09T01:34:43.716Z,1.87
2017-08-09T01:37:11.240Z,2.00
2017-08-09T01:39:38.980Z,1.92
2017-08-09T01:42:06.489Z,2.20
2017-08-09T01:44:34.775Z,2.10
2017-08-09T01:47:02.927Z,2.35
2017-08-09T01:49:30.959Z,1.95
2017-08-09T01:51:58.464Z,1.75
2017-08-09T01:54:25.967Z,2.20
2017-08-09T01:56:53.663Z,2.20
2017-08-09T01:59:21.383Z,2.30
2017-08-09T02:01:49.808Z,2.63
2017-08-09T02:04:17.544Z,1.98
2017-08-09T02:06:45.250Z,2.17
2017-08-09T02:09:16.720Z,2.40
2017-08-09T02:11:44.249Z,3.78
2017-08-09T02:14:15.539Z,1.90
2017-08-09T02:16:43.389Z,1.75
2017-08-09T02:19:15.814Z,2.37
2017-08-09T02:21:43.563Z,2.30
2017-08-09T02:24:11.329Z,1.85
2017-08-09T02:26:39.053Z,2.30
2017-08-09T02:29:06.576Z,2.15
2017-08-09T02:31:38.626Z,1.92
2017-08-09T02:34:06.336Z,2.80
2017-08-09T02:36:33.848Z,2.47
2017-08-09T02:39:01.718Z,2.10
2017-08-09T02:41:29.219Z,2.33
2017-08-09T02:43:56.775Z,3.12
2017-08-09T02:46:28.560Z,2.17
2017-08-09T02:48:56.059Z,2.70
2017-08-09T02:51:23.816Z,2.40
2017-08-09T02:53:51.560Z,2.67
2017-08-09T02:56:19.343Z,2.70
2017-08-09T02:58:47.108Z,2.35
2017-08-09T03:01:14.632Z,2.83
2017-08-09T03:03:42.896Z,2.60
2017-08-09T03:06:10.696Z,2.70
2017-08-09T03:08:38.460Z,2.30
2017-08-09T03:11:06.205Z,2.37
2017-08-09T03:13:33.703Z,2.83
2017-08-09T03:16:05.746Z,2.33
2017-08-09T03:18:33.452Z,2.60
2017-08-09T03:21:00.943Z,2.55
2017-08-09T03:23:28.479Z,2.75
2017-08-09T03:25:56.288Z,2.30
2017-08-09T03:28:23.807Z,2.25
2017-08-09T03:30:51.335Z,2.40
2017-08-09T03:33:23.167Z,2.37
2017-08-09T03:35:50.942Z,2.40
2017-08-09T03:38:18.659Z,2.83
2017-08-09T03:40:46.351Z,2.78
2017-08-09T03:43:13.899Z,2.42
2017-08-09T03:45:41.635Z,2.90
2017-08-09T03:48:12.207Z,2.80
2017-08-09T03:50:39.928Z,3.20
2017-08-09T03:53:07.489Z,2.85
2017-08-09T03:55:35.455Z,2.78
2017-08-09T03:58:03.095Z,2.53
2017-08-09T04:00:30.731Z,3.00
2017-08-09T04:02:58.319Z,2.90
2017-08-09T04:05:25.927Z,2.80
2017-08-09T04:07:54.051Z,2.87
2017-08-09T04:10:21.828Z,2.72
2017-08-09T04:12:49.543Z,3.25
2017-08-09T04:15:17.265Z,2.75
2017-08-09T04:17:48.480Z,3.62
2017-08-09T04:20:15.996Z,2.90
2017-08-09T04:22:43.695Z,2.53
2017-08-09T04:25:11.424Z,2.67
2017-08-09T04:27:39.156Z,3.70
2017-08-09T04:30:07.580Z,3.00
2017-08-09T04:32:38.429Z,2.25
2017-08-09T04:35:06.131Z,3.05
2017-08-09T04:37:33.645Z,2.95
2017-08-09T04:40:01.179Z,2.50
2017-08-09T04:42:28.859Z,3.03
2017-08-09T04:44:57.301Z,3.05
2017-08-09T04:47:25.567Z,3.12
2017-08-09T04:49:56.139Z,2.90
2017-08-09T04:52:23.920Z,2.87
2017-08-09T04:54:51.927Z,2.60
2017-08-09T04:57:19.471Z,3.03
2017-08-09T04:59:47.158Z,3.35
2017-08-09T05:02:15.019Z,2.95
2017-08-09T05:04:42.755Z,2.70
2017-08-09T05:07:10.505Z,3.58
2017-08-09T05:09:38.259Z,2.80
2017-08-09T05:12:05.979Z,2.67
2017-08-09T05:14:35.278Z,3.30
2017-08-09T05:17:07.707Z,2.85
2017-08-09T05:19:35.403Z,2.37
2017-08-09T05:22:02.967Z,2.95
2017-08-09T05:24:30.589Z,2.20
2017-08-09T05:26:58.718Z,2.50
2017-08-09T05:29:26.505Z,2.10
2017-08-09T05:31:54.008Z,2.10
2017-08-09T05:34:22.004Z,2.33
2017-08-09T05:36:49.796Z,2.00
2017-08-09T05:39:17.540Z,2.72
2017-08-09T05:41:45.087Z,2.00
2017-08-09T05:44:12.736Z,5.60
2017-08-09T05:46:40.251Z,2.20
2017-08-09T05:49:07.999Z,2.23
2017-08-09T05:51:35.499Z,2.10
2017-08-09T05:54:03.299Z,2.03
2017-08-09T05:56:31.616Z,3.30
2017-08-09T05:58:59.550Z,2.80
2017-08-09T06:01:27.106Z,2.40
2017-08-09T06:03:54.624Z,2.23
2017-08-09T06:06:22.207Z,2.13
2017-08-09T06:08:49.748Z,1.93
2017-08-09T06:11:17.256Z,2.10
2017-08-09T06:13:44.795Z,1.90
2017-08-09T06:16:12.760Z,2.20
2017-08-09T06:18:40.320Z,2.63
2017-08-09T06:21:07.980Z,2.37
2017-08-09T06:23:35.519Z,2.40
2017-08-09T06:26:03.298Z,2.70
2017-08-09T06:28:30.964Z,2.43
2017-08-09T06:30:58.897Z,2.92
2017-08-09T06:33:30.508Z,2.30
2017-08-09T06:35:59.572Z,2.37
2017-08-09T06:38:27.137Z,2.30
2017-08-09T06:40:54.868Z,2.40
2017-08-09T06:43:22.509Z,2.57
2017-08-09T06:45:50.245Z,2.03
2017-08-09T06:48:17.985Z,2.20
2017-08-09T06:50:46.760Z,2.23
2017-08-09T06:53:14.515Z,2.33
2017-08-09T06:55:42.212Z,3.10
2017-08-09T06:58:09.829Z,2.37
2017-08-09T07:00:37.432Z,2.00
2017-08-09T07:03:05.837Z,2.57
2017-08-09T07:05:33.600Z,2.47
2017-08-09T07:08:01.370Z,2.03
2017-08-09T07:10:29.160Z,2.20
2017-08-09T07:12:57.337Z,2.50
2017-08-09T07:15:24.996Z,2.67
2017-08-09T07:17:52.728Z,2.87
2017-08-09T07:20:20.496Z,2.33
2017-08-09T07:22:48.233Z,2.23
2017-08-09T07:25:15.775Z,2.00
2017-08-09T07:27:43.475Z,1.90
2017-08-09T07:30:11.052Z,1.87
2017-08-09T07:32:38.559Z,2.15
2017-08-09T07:35:06.223Z,1.80
2017-08-09T07:37:33.914Z,2.22
2017-08-09T07:40:02.581Z,2.55
2017-08-09T07:42:30.379Z,3.08
2017-08-09T07:44:59.824Z,2.20
2017-08-09T07:47:27.468Z,1.40
2017-08-09T07:49:55.207Z,2.40
2017-08-09T07:52:22.964Z,2.17
2017-08-09T07:54:50.687Z,2.10
2017-08-09T07:57:18.463Z,2.37
2017-08-09T07:59:45.968Z,1.85
2017-08-09T08:02:13.688Z,2.33
2017-08-09T08:04:45.303Z,2.12
2017-08-09T08:07:13.881Z,1.55
2017-08-09T08:09:41.619Z,1.83
2017-08-09T08:12:09.129Z,2.70
2017-08-09T08:14:36.671Z,1.75
2017-08-09T08:17:04.246Z,1.62
2017-08-09T08:19:36.119Z,2.50
2017-08-09T08:22:03.830Z,1.80
2017-08-09T08:24:31.560Z,1.98
2017-08-09T08:26:59.139Z,1.50
2017-08-09T08:29:27.454Z,2.00
2017-08-09T08:31:54.979Z,1.90
2017-08-09T08:34:23.529Z,1.52
2017-08-09T08:36:51.081Z,2.00
2017-08-09T08:39:18.602Z,2.12
2017-08-09T08:41:46.231Z,2.67
2017-08-09T08:44:13.797Z,2.17
2017-08-09T08:46:41.475Z,2.25
2017-08-09T08:49:09.193Z,2.00
2017-08-09T08:51:36.756Z,2.00
2017-08-09T08:54:05.954Z,2.92
2017-08-09T08:56:33.461Z,3.20
2017-08-09T08:59:01.400Z,1.98
2017-08-09T09:01:28.963Z,1.95
2017-08-09T09:03:56.468Z,1.77
2017-08-09T09:06:23.988Z,1.70
2017-08-09T09:08:51.659Z,1.67
2017-08-09T09:11:19.375Z,1.90
2017-08-09T09:13:47.772Z,1.90
2017-08-09T09:16:16.157Z,2.17
2017-08-09T09:18:43.816Z,2.10
2017-08-09T09:21:11.707Z,1.80
2017-08-09T09:23:39.432Z,1.83
2017-08-09T09:26:06.991Z,2.53
2017-08-09T09:28:35.263Z,1.52
2017-08-09T09:31:02.886Z,1.70
2017-08-09T09:33:30.577Z,2.05
2017-08-09T09:35:58.271Z,2.15
2017-08-09T09:38:26.091Z,2.05
2017-08-09T09:40:57.124Z,2.00
2017-08-09T09:43:25.228Z,1.67
2017-08-09T09:45:52.751Z,1.80
2017-08-09T09:48:20.488Z,2.30
2017-08-09T09:50:48.257Z,1.85
2017-08-09T09:53:16.026Z,1.40
2017-08-09T09:55:43.882Z,2.25
2017-08-09T09:58:11.842Z,2.20
2017-08-09T10:00:39.539Z,2.30
2017-08-09T10:03:07.502Z,1.67
2017-08-09T10:05:35.105Z,1.87
2017-08-09T10:08:02.677Z,2.57
2017-08-09T10:10:30.387Z,2.40
2017-08-09T10:12:58.088Z,2.10
2017-08-09T10:15:25.661Z,2.30
2017-08-09T10:17:53.308Z,2.50
2017-08-09T10:20:21.716Z,2.13
2017-08-09T10:22:53.199Z,2.13
2017-08-09T10:25:20.895Z,2.03
2017-08-09T10:27:48.398Z,2.53
2017-08-09T10:30:16.196Z,2.57
2017-08-09T10:32:43.912Z,2.47
2017-08-09T10:35:11.447Z,2.30
2017-08-09T10:37:39.112Z,3.00
2017-08-09T10:40:09.805Z,2.53
2017-08-09T10:42:37.575Z,3.00
2017-08-09T10:45:05.160Z,3.40
2017-08-09T10:47:32.664Z,2.50
2017-08-09T10:50:00.447Z,3.17
2017-08-09T10:52:28.156Z,2.33
2017-08-09T10:54:55.703Z,3.40
2017-08-09T10:57:23.372Z,3.63
2017-08-09T10:59:51.812Z,2.87
2017-08-09T11:02:19.512Z,3.20
2017-08-09T11:04:47.035Z,2.80
2017-08-09T11:07:14.821Z,3.50
2017-08-09T11:09:42.821Z,3.00
2017-08-09T11:12:10.387Z,3.20
2017-08-09T11:14:38.699Z,3.10
2017-08-09T11:17:06.407Z,3.30
2017-08-09T11:19:33.940Z,3.07
2017-08-09T11:22:04.753Z,2.63
2017-08-09T11:24:32.256Z,2.97
2017-08-09T11:26:59.953Z,2.80
2017-08-09T11:29:27.850Z,2.70
2017-08-09T11:31:55.459Z,2.73
2017-08-09T11:34:23.379Z,3.50
2017-08-09T11:36:51.007Z,3.10
2017-08-09T11:39:24.322Z,2.20
2017-08-09T11:41:52.050Z,2.57
2017-08-09T11:44:19.861Z,2.47
2017-08-09T11:46:47.394Z,2.83
2017-08-09T11:49:15.052Z,2.80
2017-08-09T11:51:42.841Z,2.97
2017-08-09T11:54:10.522Z,2.90
2017-08-09T11:56:38.102Z,2.70
2017-08-09T11:59:05.807Z,2.73
2017-08-09T12:01:34.155Z,1.80
2017-08-09T12:04:01.744Z,2.70
2017-08-09T12:06:29.400Z,2.30
2017-08-09T12:09:01.189Z,2.83
2017-08-09T12:11:28.931Z,2.33
2017-08-09T12:13:56.728Z,2.10
2017-08-09T12:16:24.229Z,2.73
2017-08-09T12:18:53.113Z,3.30
2017-08-09T12:21:20.668Z,2.80
2017-08-09T12:23:51.766Z,2.70
2017-08-09T12:26:19.471Z,2.60
2017-08-09T12:28:47.004Z,2.90
2017-08-09T12:31:14.747Z,2.43
2017-08-09T12:33:42.507Z,2.70
2017-08-09T12:36:10.028Z,2.00
2017-08-09T12:38:38.291Z,2.83
2017-08-09T12:41:11.028Z,2.17
2017-08-09T12:43:38.735Z,2.10
2017-08-09T12:46:06.231Z,2.13
2017-08-09T12:48:33.755Z,1.90
2017-08-09T12:51:01.396Z,2.13
2017-08-09T12:53:32.911Z,1.73
2017-08-09T12:56:00.740Z,2.27
2017-08-09T12:58:31.983Z,1.90
2017-08-09T13:00:59.580Z,2.27
2017-08-09T13:03:27.301Z,2.67
2017-08-09T13:05:55.107Z,1.67
2017-08-09T13:08:22.840Z,1.60
2017-08-09T13:10:51.287Z,2.40
2017-08-09T13:13:18.883Z,1.50
2017-08-09T13:15:46.464Z,2.00
2017-08-09T13:18:13.965Z,1.70
2017-08-09T13:20:41.508Z,1.77
2017-08-09T13:23:09.151Z,2.10
2017-08-09T13:25:36.939Z,1.60
2017-08-09T13:28:04.724Z,1.70
2017-08-09T13:30:32.407Z,1.53
2017-08-09T13:32:59.936Z,2.10
2017-08-09T13:35:27.687Z,2.00
2017-08-09T13:37:56.048Z,1.80
2017-08-09T13:40:23.763Z,2.00
2017-08-09T13:42:51.400Z,1.90
2017-08-09T13:45:19.011Z,1.97
2017-08-09T13:47:46.524Z,1.67
2017-08-09T13:50:14.261Z,3.93
2017-08-09T13:52:41.962Z,2.27
2017-08-09T13:55:09.789Z,2.27
2017-08-09T13:57:37.883Z,1.90
2017-08-09T14:00:05.596Z,1.90
2017-08-09T14:02:34.001Z,1.97
2017-08-09T14:05:02.627Z,1.80
2017-08-09T14:07:30.131Z,1.70
2017-08-09T14:10:00.688Z,2.43
2017-08-09T14:12:28.382Z,1.80
2017-08-09T14:14:55.960Z,2.30
2017-08-09T14:17:24.256Z,1.40
2017-08-09T14:19:51.988Z,1.77
2017-08-09T14:22:19.516Z,1.80
2017-08-09T14:24:47.211Z,1.60
2017-08-09T14:27:18.104Z,2.20
2017-08-09T14:29:45.665Z,1.97
2017-08-09T14:32:13.263Z,1.93
2017-08-09T14:34:41.691Z,1.83
2017-08-09T14:37:09.418Z,1.70
2017-08-09T14:39:36.931Z,1.80
2017-08-09T14:42:07.627Z,1.93
2017-08-09T14:44:35.168Z,2.40
2017-08-09T14:47:03.591Z,1.90
2017-08-09T14:49:31.320Z,2.13
2017-08-09T14:51:58.831Z,2.20
2017-08-09T14:54:26.567Z,1.87
2017-08-09T14:56:54.360Z,2.60
2017-08-09T14:59:22.096Z,2.07
2017-08-09T15:01:49.841Z,2.23
2017-08-09T15:04:17.343Z,2.60
2017-08-09T15:06:45.814Z,1.83
2017-08-09T15:09:13.470Z,1.80
2017-08-09T15:11:41.198Z,2.20
2017-08-09T15:14:08.944Z,2.37
2017-08-09T15:16:36.446Z,2.17
2017-08-09T15:19:04.511Z,1.93
2017-08-09T15:21:32.263Z,2.10
2017-08-09T15:23:59.832Z,3.00
2017-08-09T15:26:27.458Z,2.60
2017-08-09T15:28:54.970Z,2.20
2017-08-09T15:31:22.680Z,2.43
2017-08-09T15:33:50.295Z,2.13
2017-08-09T15:36:18.852Z,2.57
2017-08-09T15:38:46.438Z,2.57
2017-08-09T15:41:14.044Z,2.77
2017-08-09T15:43:41.683Z,1.87
2017-08-09T15:46:09.313Z,2.30
2017-08-09T15:48:37.031Z,2.57
2017-08-09T15:51:05.460Z,2.10
2017-08-09T15:53:33.011Z,2.33
2017-08-09T15:56:00.634Z,2.43
2017-08-09T15:58:29.000Z,2.60
2017-08-09T16:00:56.552Z,2.17
2017-08-09T16:03:24.223Z,3.13
2017-08-09T16:05:51.844Z,2.93
2017-08-09T16:08:19.385Z,2.40
2017-08-09T16:10:46.894Z,2.10
2017-08-09T16:13:15.636Z,2.67
2017-08-09T16:15:43.399Z,1.97
2017-08-09T16:18:10.903Z,2.00
2017-08-09T16:20:38.605Z,2.17
2017-08-09T16:23:06.335Z,2.23
2017-08-09T16:25:33.863Z,2.50
2017-08-09T16:28:01.555Z,2.10
2017-08-09T16:30:29.095Z,1.70
2017-08-09T16:32:56.775Z,1.93
2017-08-09T16:35:25.816Z,2.50
2017-08-09T16:37:53.359Z,2.97
2017-08-09T16:40:20.997Z,2.70
2017-08-09T16:42:48.525Z,2.40
2017-08-09T16:45:16.259Z,1.57
2017-08-09T16:47:43.979Z,1.90
2017-08-09T16:50:11.501Z,1.47
2017-08-09T16:52:39.555Z,1.73
2017-08-09T16:55:07.328Z,2.20
2017-08-09T16:57:34.851Z,1.77
2017-08-09T17:00:05.421Z,1.80
2017-08-09T17:02:33.092Z,1.80
2017-08-09T17:05:00.949Z,1.50
2017-08-09T17:07:28.547Z,2.07
2017-08-09T17:09:56.043Z,1.90
2017-08-09T17:12:23.827Z,1.70
2017-08-09T17:14:51.547Z,1.60
2017-08-09T17:17:19.156Z,1.90
2017-08-09T17:19:46.835Z,2.17
2017-08-09T17:22:14.630Z,2.40
2017-08-09T17:24:42.958Z,1.73
2017-08-09T17:27:10.464Z,1.47
2017-08-09T17:29:38.012Z,1.57
2017-08-09T17:32:05.586Z,1.70
2017-08-09T17:34:33.084Z,1.73
2017-08-09T17:37:00.963Z,1.60
2017-08-09T17:39:28.482Z,2.10
2017-08-09T17:41:55.978Z,1.13
2017-08-09T17:44:23.524Z,1.40
2017-08-09T17:46:51.036Z,1.83
2017-08-09T17:49:18.771Z,1.40
2017-08-09T17:51:46.507Z,1.70
2017-08-09T17:54:14.285Z,1.43
2017-08-09T17:56:41.786Z,1.60
2017-08-09T17:59:09.760Z,1.53
2017-08-09T18:01:37.293Z,1.90
2017-08-09T18:04:04.851Z,1.93
2017-08-09T18:06:32.380Z,1.40
2017-08-09T18:08:59.888Z,1.90
2017-08-09T18:11:27.431Z,1.67
2017-08-09T18:13:54.938Z,2.07
2017-08-09T18:16:24.269Z,1.60
2017-08-09T18:18:51.825Z,3.43
2017-08-09T18:21:19.407Z,2.57
2017-08-09T18:23:47.132Z,3.03
2017-08-09T18:26:14.745Z,3.47
2017-08-09T18:28:42.356Z,2.10
2017-08-09T18:31:09.896Z,2.00
2017-08-09T18:33:37.531Z,1.90
2017-08-09T18:36:05.092Z,1.60
2017-08-09T18:38:32.592Z,3.20
2017-08-09T18:41:00.243Z,2.00
2017-08-09T18:43:27.939Z,1.93
2017-08-09T18:45:55.523Z,1.63
2017-08-09T18:48:23.036Z,1.20
2017-08-09T18:50:50.707Z,1.93
2017-08-09T18:53:18.217Z,1.63
2017-08-09T18:55:45.732Z,1.60
2017-08-09T18:58:13.390Z,2.27
2017-08-09T19:00:40.949Z,1.63
2017-08-09T19:03:08.611Z,2.30
2017-08-09T19:05:36.288Z,1.60
2017-08-09T19:08:03.850Z,1.40
2017-08-09T19:10:31.372Z,1.30
2017-08-09T19:12:58.871Z,1.83
2017-08-09T19:15:26.558Z,1.73
2017-08-09T19:17:54.079Z,1.50
2017-08-09T19:20:21.668Z,2.10
2017-08-09T19:22:49.202Z,1.57
2017-08-09T19:25:16.704Z,1.57
2017-08-09T19:27:44.993Z,1.20
2017-08-09T19:30:12.511Z,1.60
2017-08-09T19:32:40.024Z,1.60
2017-08-09T19:35:07.944Z,2.20
2017-08-09T19:37:38.335Z,1.80
2017-08-09T19:40:05.980Z,1.80
2017-08-09T19:42:33.551Z,2.13
2017-08-09T19:45:01.202Z,1.53
2017-08-09T19:47:28.718Z,1.87
2017-08-09T19:49:56.220Z,1.30
2017-08-09T19:52:23.767Z,1.73
2017-08-09T19:54:51.642Z,1.70
2017-08-09T19:57:19.150Z,1.80
2017-08-09T19:59:46.664Z,1.60
2017-08-09T20:02:14.190Z,1.30
2017-08-09T20:04:42.038Z,1.62
2017-08-09T20:07:09.620Z,1.40
2017-08-09T20:09:37.916Z,2.83
2017-08-09T20:12:05.413Z,1.67
2017-08-09T20:14:32.968Z,2.17
2017-08-09T20:17:07.507Z,2.17
2017-08-09T20:19:35.098Z,1.73
2017-08-09T20:22:02.634Z,2.00
2017-08-09T20:24:30.200Z,1.70
2017-08-09T20:26:57.715Z,2.30
2017-08-09T20:29:25.232Z,1.85
2017-08-09T20:31:53.595Z,2.65
2017-08-09T20:34:21.103Z,1.70
2017-08-09T20:36:48.615Z,1.97
2017-08-09T20:39:16.918Z,1.60
2017-08-09T20:41:45.271Z,2.83
2017-08-09T20:44:12.805Z,3.05
2017-08-09T20:46:40.311Z,3.60
2017-08-09T20:49:07.948Z,3.60
2017-08-09T20:51:35.504Z,2.87
2017-08-09T20:54:03.028Z,3.55
2017-08-09T20:56:30.707Z,4.18
2017-08-09T20:58:58.275Z,5.53
2017-08-09T21:01:25.773Z,3.30
2017-08-09T21:03:53.604Z,3.80
2017-08-09T21:06:21.120Z,5.00
2017-08-09T21:08:48.640Z,4.10
2017-08-09T21:11:16.324Z,5.03
2017-08-09T21:13:44.047Z,4.55
2017-08-09T21:16:11.544Z,2.67
2017-08-09T21:18:39.244Z,3.65
2017-08-09T21:21:06.746Z,3.00
2017-08-09T21:23:34.256Z,3.12
2017-08-09T21:26:01.807Z,2.80
2017-08-09T21:28:29.334Z,3.15
2017-08-09T21:30:56.841Z,2.80
2017-08-09T21:33:24.407Z,3.20
2017-08-09T21:35:51.907Z,2.75
2017-08-09T21:38:19.454Z,3.10
2017-08-09T21:40:47.161Z,4.07
2017-08-09T21:43:14.669Z,2.80
2017-08-09T21:45:42.219Z,3.33
2017-08-09T21:48:09.732Z,3.13
2017-08-09T21:50:37.243Z,2.67
2017-08-09T21:53:05.526Z,2.92
2017-08-09T21:55:33.327Z,2.97
2017-08-09T21:58:01.055Z,3.65
2017-08-09T22:00:28.892Z,3.10
2017-08-09T22:02:56.623Z,4.80
2017-08-09T22:05:24.131Z,3.40
2017-08-09T22:07:51.645Z,2.97
2017-08-09T22:10:19.245Z,3.55
2017-08-09T22:12:46.757Z,5.53
2017-08-09T22:15:14.319Z,3.50
2017-08-09T22:17:43.503Z,2.95
2017-08-09T22:20:11.081Z,2.53
2017-08-09T22:22:38.580Z,2.40
2017-08-09T22:25:06.446Z,2.90
2017-08-09T22:27:33.997Z,4.10
2017-08-09T22:30:01.543Z,2.62
2017-08-09T22:32:29.063Z,2.85
2017-08-09T22:34:56.567Z,3.10
2017-08-09T22:37:24.123Z,3.70
2017-08-09T22:39:52.118Z,3.45
2017-08-09T22:42:19.726Z,2.80
2017-08-09T22:44:47.224Z,2.95
2017-08-09T22:47:14.768Z,2.90
2017-08-09T22:49:42.406Z,3.50
2017-08-09T22:52:10.060Z,3.53
2017-08-09T22:54:37.581Z,4.45
2017-08-09T22:57:06.006Z,2.87
2017-08-09T22:59:33.770Z,2.72
2017-08-09T23:02:01.299Z,4.50
2017-08-09T23:04:28.991Z,3.08
2017-08-09T23:07:00.083Z,3.65
2017-08-09T23:09:27.605Z,3.60
2017-08-09T23:11:55.240Z,2.80
2017-08-09T23:14:22.942Z,3.20
2017-08-09T23:16:50.455Z,3.37
2017-08-09T23:19:21.255Z,2.83
2017-08-09T23:21:48.751Z,4.18
2017-08-09T23:24:16.272Z,4.37
2017-08-09T23:26:43.803Z,3.75
2017-08-09T23:29:11.337Z,3.45
2017-08-09T23:31:38.905Z,3.35
2017-08-09T23:34:06.399Z,3.50
2017-08-09T23:36:33.944Z,3.00
2017-08-09T23:39:01.524Z,3.22
2017-08-09T23:41:29.051Z,3.50
2017-08-09T23:43:56.555Z,3.55
2017-08-09T23:46:24.855Z,3.50
2017-08-09T23:48:52.619Z,3.33
2017-08-09T23:51:20.490Z,3.30
2017-08-09T23:53:48.150Z,3.30
2017-08-09T23:56:15.711Z,3.97
2017-08-09T23:58:43.212Z,4.30
